Time;durP1;ratioP1;P1;durP2;ratioP2;P2;SDS_P1;SDS_P2;PMS_P1;PMS_P2;Temp;Humidity;BMP_temperature;BMP_pressure;BME280_temperature;BME280_humidity;BME280_pressure;Samples;Min_cycle;Max_cycle;Signal;HPM_P1;HPM_P2
2022/05/03 00:00:15;;;;;;;12.10;10.70;;;;;;;7.08;74.08;100323.84;88183;1274;93493;-64
2022/05/03 00:03:09;;;;;;;12.60;10.10;;;;;;;7.07;74.12;100321.81;88159;1274;81043;-66
2022/05/03 00:05:37;;;;;;;16.10;10.70;;;;;;;7.07;74.17;100316.98;88174;1275;79928;-60
2022/05/03 00:07:56;;;;;;;11.00;9.90;;;;;;;7.07;73.96;100314.64;88191;1274;99201;-59
2022/05/03 00:10:12;;;;;;;14.10;9.70;;;;;;;7.07;74.13;100316.41;88148;1274;88379;-66
2022/05/03 00:12:27;;;;;;;11.50;9.80;;;;;;;7.08;74.02;100317.58;88171;1274;93246;-66
2022/05/03 00:14:47;;;;;;;14.70;10.70;;;;;;;7.13;73.90;100315.40;88195;1274;80855;-66
2022/05/03 00:16:58;;;;;;;16.40;12.00;;;;;;;7.18;73.92;100320.96;88195;1274;80398;-66
2022/05/03 00:19:10;;;;;;;15.20;11.70;;;;;;;7.19;73.77;100320.50;88174;1274;98717;-61
2022/05/03 00:21:22;;;;;;;15.80;12.30;;;;;;;7.14;73.74;100318.16;88193;1274;88312;-59
2022/05/03 00:23:32;;;;;;;15.10;11.90;;;;;;;7.10;73.77;100316.85;88187;1274;95068;-58
2022/05/03 00:25:44;;;;;;;18.50;12.30;;;;;;;7.07;73.72;100314.46;88162;1275;79499;-60
2022/05/03 00:27:56;;;;;;;14.80;11.20;;;;;;;7.04;73.82;100311.78;88158;1274;80892;-60
2022/05/03 00:30:06;;;;;;;14.20;11.20;;;;;;;7.03;73.82;100313.08;88189;1275;97766;-59
2022/05/03 00:32:16;;;;;;;14.40;11.20;;;;;;;7.04;73.97;100313.90;88179;1274;89222;-60
2022/05/03 00:34:27;;;;;;;14.10;11.50;;;;;;;6.99;74.02;100321.21;88175;1274;94066;-60
2022/05/03 00:36:35;;;;;;;15.30;11.70;;;;;;;6.99;73.81;100325.90;88186;1274;78964;-60
2022/05/03 00:38:44;;;;;;;14.60;12.30;;;;;;;6.99;74.14;100326.45;88176;1274;82351;-61
2022/05/03 00:41:01;;;;;;;13.90;11.70;;;;;;;7.00;74.00;100327.13;88181;1274;99014;-68
2022/05/03 00:43:23;;;;;;;18.60;13.80;;;;;;;7.02;73.93;100328.61;88199;1274;86674;-66
2022/05/03 00:45:43;;;;;;;23.30;15.40;;;;;;;7.11;73.94;100328.56;88171;1274;95250;-61
2022/05/03 00:48:01;;;;;;;21.20;17.00;;;;;;;7.18;73.99;100326.38;88172;1274;78348;-60
2022/05/03 00:50:12;;;;;;;21.50;16.20;;;;;;;7.20;73.66;100327.73;88177;1274;83074;-66
2022/05/03 00:52:33;;;;;;;25.30;18.70;;;;;;;7.20;73.74;100321.73;88200;1274;98551;-68
2022/05/03 00:55:05;;;;;;;23.70;18.70;;;;;;;7.19;73.68;100320.36;88204;1274;88497;-67
2022/05/03 00:57:32;;;;;;;25.00;18.80;;;;;;;7.15;73.77;100315.70;88164;1273;94330;-67
2022/05/03 01:00:08;;;;;;;24.60;20.20;;;;;;;7.17;73.63;100318.73;88201;1275;78860;-67
2022/05/03 01:02:30;;;;;;;24.30;19.80;;;;;;;7.18;73.64;100313.45;88194;1274;80872;-66
2022/05/03 01:05:01;;;;;;;26.90;21.10;;;;;;;7.18;73.76;100311.63;88174;1274;98370;-61
2022/05/03 01:07:28;;;;;;;27.80;20.20;;;;;;;7.20;73.76;100310.70;88181;1274;87746;-60
2022/05/03 01:09:43;;;;;;;26.90;20.80;;;;;;;7.23;73.67;100307.91;88140;1274;95402;-67
2022/05/03 01:12:12;;;;;;;26.00;20.90;;;;;;;7.26;73.47;100306.08;88184;1274;82788;-66
2022/05/03 01:14:41;;;;;;;31.00;20.60;;;;;;;7.27;73.65;100304.91;88169;1274;79788;-60
2022/05/03 01:17:00;;;;;;;26.50;20.20;;;;;;;7.26;73.76;100305.01;88202;1275;99095;-61
2022/05/03 01:19:34;;;;;;;24.50;20.90;;;;;;;7.29;73.71;100304.36;88128;1274;88519;-61
2022/05/03 01:22:07;;;;;;;27.20;20.60;;;;;;;7.33;73.77;100306.21;88173;1274;93387;-60
2022/05/03 01:24:38;;;;;;;27.90;20.70;;;;;;;7.33;73.88;100304.23;88192;1274;80029;-65
2022/05/03 01:27:50;;;;;;;27.40;20.90;;;;;;;7.35;73.80;100303.27;88206;1274;81671;-66
2022/05/03 01:30:02;;;;;;;27.30;20.90;;;;;;;7.37;73.92;100304.88;88200;1275;97959;-60
2022/05/03 01:32:13;;;;;;;26.60;21.40;;;;;;;7.37;73.78;100302.84;88195;1274;88408;-60
2022/05/03 01:34:26;;;;;;;27.10;21.00;;;;;;;7.39;73.68;100303.55;88149;1274;95224;-60
2022/05/03 01:36:55;;;;;;;30.70;22.70;;;;;;;7.39;73.63;100307.11;88198;1274;77152;-61
2022/05/03 01:39:16;;;;;;;27.00;21.50;;;;;;;7.43;73.65;100308.50;88205;1274;82690;-67
2022/05/03 01:41:43;;;;;;;31.40;23.20;;;;;;;7.44;73.66;100308.17;88178;1274;97991;-67
2022/05/03 01:44:09;;;;;;;31.10;23.40;;;;;;;7.45;73.61;100310.41;88157;1274;87867;-61
2022/05/03 01:46:28;;;;;;;37.00;24.70;;;;;;;7.44;73.38;100311.99;88183;1275;95075;-60
2022/05/03 01:51:44;;;;;;;33.30;24.40;;;;;;;7.44;73.54;100315.23;88153;1274;81531;-66
2022/05/03 01:54:17;;;;;;;33.40;24.40;;;;;;;7.47;73.44;100314.13;88149;1274;99578;-68
2022/05/03 01:56:55;;;;;;;36.00;24.90;;;;;;;7.51;73.62;100311.10;88175;1274;89372;-66
2022/05/03 01:59:32;;;;;;;32.60;24.90;;;;;;;7.57;73.36;100309.91;88165;1274;93691;-66
2022/05/03 02:01:59;;;;;;;37.00;24.20;;;;;;;7.63;73.26;100310.30;88188;1274;79997;-66
2022/05/03 02:04:21;;;;;;;32.80;24.60;;;;;;;7.65;73.16;100313.63;88193;1274;80496;-60
2022/05/03 02:06:44;;;;;;;33.70;24.30;;;;;;;7.64;73.08;100310.55;88165;1274;99831;-60
2022/05/03 02:09:02;;;;;;;32.40;23.30;;;;;;;7.58;72.99;100316.02;88173;1274;87466;-67
2022/05/03 02:11:38;;;;;;;31.70;22.30;;;;;;;7.54;72.91;100316.21;88150;1274;93290;-67
2022/05/03 02:16:51;;;;;;;29.00;22.40;;;;;;;7.42;72.64;100314.66;88158;1274;81270;-67
2022/05/03 02:19:22;;;;;;;29.00;21.50;;;;;;;7.35;72.58;100316.67;88144;1274;99716;-60
2022/05/03 02:21:34;;;;;;;25.40;20.50;;;;;;;7.29;72.84;100321.11;88167;1274;87724;-60
2022/05/03 02:23:59;;;;;;;28.90;20.00;;;;;;;7.27;72.80;100325.70;88184;1274;95971;-61
2022/05/03 02:26:26;;;;;;;26.70;21.10;;;;;;;7.25;72.88;100324.13;88170;1274;79130;-60
2022/05/03 02:28:43;;;;;;;25.60;20.60;;;;;;;7.22;72.88;100322.14;88169;1274;83506;-61
2022/05/03 02:30:53;;;;;;;29.50;20.40;;;;;;;7.22;72.57;100323.79;88174;1274;97548;-61
2022/05/03 02:33:18;;;;;;;25.70;19.60;;;;;;;7.21;72.66;100320.60;88195;1274;89522;-60
2022/05/03 02:35:36;;;;;;;24.70;18.90;;;;;;;7.25;72.80;100320.93;88135;1275;93960;-60
2022/05/03 02:37:48;;;;;;;27.30;20.10;;;;;;;7.27;72.79;100319.78;88168;1274;78304;-60
2022/05/03 02:40:04;;;;;;;26.50;19.70;;;;;;;7.27;72.72;100315.29;88185;1275;83177;-62
2022/05/03 02:42:14;;;;;;;27.80;19.00;;;;;;;7.27;72.54;100314.11;88207;1274;99395;-61
2022/05/03 02:44:24;;;;;;;23.10;18.80;;;;;;;7.24;72.51;100317.48;88196;1275;87233;-60
2022/05/03 02:46:58;;;;;;;24.10;18.30;;;;;;;7.20;72.66;100319.35;88155;1274;94735;-61
2022/05/03 02:49:19;;;;;;;21.80;17.30;;;;;;;7.12;72.59;100319.27;88128;1274;79275;-66
2022/05/03 02:51:37;;;;;;;25.40;16.00;;;;;;;7.05;72.31;100319.13;88222;1274;82423;-66
2022/05/03 02:53:52;;;;;;;20.90;16.80;;;;;;;6.99;72.47;100318.63;88194;1275;100502;-64
2022/05/03 02:56:16;;;;;;;22.80;16.90;;;;;;;6.95;72.53;100321.05;88215;1275;88695;-66
2022/05/03 02:58:44;;;;;;;22.50;15.90;;;;;;;6.88;72.44;100321.08;88195;1274;96009;-66
2022/05/03 03:04:14;;;;;;;22.30;16.20;;;;;;;6.79;72.62;100323.55;88213;1275;80895;-66
2022/05/03 03:06:31;;;;;;;23.90;16.80;;;;;;;6.71;72.60;100326.71;88216;1275;99164;-67
2022/05/03 03:08:47;;;;;;;23.40;15.80;;;;;;;6.68;72.69;100322.98;88182;1274;88634;-66
2022/05/03 03:11:03;;;;;;;20.80;15.80;;;;;;;6.64;72.88;100325.59;88229;1274;94660;-67
2022/05/03 03:13:34;;;;;;;22.10;16.20;;;;;;;6.58;72.91;100324.58;88228;1274;77408;-67
2022/05/03 03:15:46;;;;;;;21.00;16.30;;;;;;;6.50;72.93;100325.00;88229;1274;83184;-60
2022/05/03 03:17:56;;;;;;;20.40;16.50;;;;;;;6.48;73.13;100324.55;88184;1274;100288;-60
2022/05/03 03:20:14;;;;;;;22.90;16.50;;;;;;;6.44;72.85;100323.95;88234;1274;89809;-67
2022/05/03 03:22:24;;;;;;;22.90;16.90;;;;;;;6.39;73.01;100326.05;88191;1274;94452;-67
2022/05/03 03:24:35;;;;;;;19.90;16.30;;;;;;;6.36;73.00;100326.45;88210;1275;79309;-61
2022/05/03 03:26:47;;;;;;;22.60;15.60;;;;;;;6.34;73.09;100329.16;88185;1274;81380;-59
2022/05/03 03:28:59;;;;;;;19.90;15.40;;;;;;;6.33;73.15;100328.69;88178;1274;99405;-67
2022/05/03 03:31:10;;;;;;;19.80;15.90;;;;;;;6.35;73.40;100331.55;88220;1274;86869;-68
2022/05/03 03:33:22;;;;;;;19.40;15.50;;;;;;;6.36;73.41;100329.98;88223;1274;94563;-68
2022/05/03 03:35:34;;;;;;;21.40;14.80;;;;;;;6.37;73.37;100334.56;88224;1275;80635;-66
2022/05/03 03:37:46;;;;;;;20.20;14.30;;;;;;;6.35;73.36;100335.23;88225;1274;83475;-69
2022/05/03 03:39:55;;;;;;;19.10;15.40;;;;;;;6.38;73.54;100336.58;88259;1274;100104;-66
2022/05/03 03:42:07;;;;;;;17.80;15.10;;;;;;;6.44;73.87;100337.49;88250;1275;89507;-67
2022/05/03 03:44:16;;;;;;;20.70;15.40;;;;;;;6.54;73.85;100339.00;87424;1274;1009990;-60
2022/05/03 03:46:25;;;;;;;22.60;16.00;;;;;;;6.60;74.07;100341.15;88199;1274;79167;-60
2022/05/03 03:48:35;;;;;;;20.70;15.80;;;;;;;6.72;74.08;100339.35;88208;1274;83131;-60
2022/05/03 03:50:48;;;;;;;20.10;14.50;;;;;;;6.84;73.89;100342.42;88224;1274;97887;-63
2022/05/03 03:52:58;;;;;;;20.30;15.70;;;;;;;6.90;73.93;100337.52;88202;1274;88821;-60
2022/05/03 03:55:13;;;;;;;19.20;15.30;;;;;;;7.04;73.74;100341.33;88209;1274;94949;-60
2022/05/03 03:57:23;;;;;;;21.30;16.00;;;;;;;7.65;73.68;100333.88;88172;1274;80695;-60
2022/05/03 03:59:33;;;;;;;18.80;14.80;;;;;;;7.69;73.26;100333.23;88263;1274;82123;-61
2022/05/03 04:01:45;;;;;;;18.30;14.20;;;;;;;8.07;73.67;100341.00;88205;1274;99065;-62
2022/05/03 04:03:54;;;;;;;17.60;15.00;;;;;;;9.04;73.60;100337.95;88210;1275;89443;-60
2022/05/03 04:06:07;;;;;;;20.10;14.10;;;;;;;10.17;72.75;100332.92;88148;1274;95508;-60
2022/05/03 04:08:18;;;;;;;16.90;13.80;;;;;;;10.62;71.65;100335.90;88175;1274;78747;-60
2022/05/03 04:10:30;;;;;;;17.10;13.30;;;;;;;10.53;71.00;100338.32;88154;1274;83653;-69
2022/05/03 04:12:43;;;;;;;18.10;14.00;;;;;;;10.23;70.63;100337.41;88175;1274;97974;-67
2022/05/03 04:14:52;;;;;;;19.10;13.50;;;;;;;10.13;70.65;100342.58;88185;1274;88629;-61
2022/05/03 04:17:04;;;;;;;18.50;14.30;;;;;;;10.18;70.32;100341.08;88209;1274;93444;-60
2022/05/03 04:19:15;;;;;;;15.00;12.90;;;;;;;10.58;69.95;100343.48;88209;1275;78786;-66
2022/05/03 04:21:27;;;;;;;16.60;13.30;;;;;;;10.62;69.46;100349.73;88235;1274;80628;-67
2022/05/03 04:23:36;;;;;;;16.50;13.40;;;;;;;10.69;69.39;100352.17;88158;1274;99191;-68
2022/05/03 04:25:45;;;;;;;14.60;12.10;;;;;;;10.60;69.01;100351.92;88203;1274;89195;-60
2022/05/03 04:27:57;;;;;;;14.80;12.20;;;;;;;10.53;68.54;100353.08;88216;1274;96029;-61
2022/05/03 04:30:09;;;;;;;12.70;10.70;;;;;;;10.39;68.27;100353.23;88237;1274;78789;-60
2022/05/03 04:32:18;;;;;;;12.50;11.10;;;;;;;10.28;68.30;100351.02;88192;1275;83917;-59
2022/05/03 04:34:28;;;;;;;16.50;11.90;;;;;;;10.46;68.22;100355.06;88208;1273;98653;-66
2022/05/03 04:36:39;;;;;;;15.30;11.20;;;;;;;11.60;68.55;100355.04;88233;1274;87985;-67
2022/05/03 04:38:47;;;;;;;13.80;11.40;;;;;;;13.34;67.27;100355.20;88180;1274;95259;-62
2022/05/03 04:41:02;;;;;;;13.60;10.40;;;;;;;14.80;65.24;100348.95;88165;1274;80166;-60
2022/05/03 04:43:14;;;;;;;14.40;11.10;;;;;;;15.98;63.46;100350.66;88182;1274;81382;-62
2022/05/03 04:45:26;;;;;;;13.20;10.30;;;;;;;16.94;62.14;100351.14;88223;1274;100632;-65
2022/05/03 04:47:37;;;;;;;11.80;9.50;;;;;;;17.82;60.51;100348.27;88182;1275;88470;-66
2022/05/03 04:49:49;;;;;;;12.60;10.00;;;;;;;18.58;59.13;100347.73;88209;1274;95312;-60
2022/05/03 04:51:58;;;;;;;13.40;9.90;;;;;;;19.62;58.21;100351.91;88204;1274;78064;-61
2022/05/03 04:54:10;;;;;;;10.90;8.40;;;;;;;20.25;56.46;100346.75;88236;1274;82381;-67
2022/05/03 04:56:26;;;;;;;11.40;8.00;;;;;;;20.13;54.92;100346.63;88180;1274;98886;-67
2022/05/03 04:58:35;;;;;;;11.50;8.00;;;;;;;20.06;53.79;100353.38;88217;1274;89003;-68
2022/05/03 05:00:47;;;;;;;9.20;8.00;;;;;;;20.56;52.84;100353.12;88143;1274;94067;-67
2022/05/03 05:02:58;;;;;;;12.00;8.10;;;;;;;20.83;51.65;100360.94;88219;1274;78847;-67
2022/05/03 05:05:09;;;;;;;10.80;7.70;;;;;;;21.70;50.71;100363.04;88160;1274;83435;-60
2022/05/03 05:07:18;;;;;;;7.60;6.80;;;;;;;22.22;49.65;100359.23;88218;1274;100227;-60
2022/05/03 05:09:27;;;;;;;8.00;7.20;;;;;;;22.74;48.07;100355.29;88235;1275;87855;-60
2022/05/03 05:11:35;;;;;;;6.90;6.20;;;;;;;23.41;47.21;100354.71;88206;1274;96067;-61
2022/05/03 05:13:47;;;;;;;9.10;6.60;;;;;;;24.11;45.90;100352.05;88169;1274;77372;-62
2022/05/03 05:15:56;;;;;;;8.80;6.40;;;;;;;24.94;44.90;100354.24;88228;1274;80678;-60
2022/05/03 05:18:06;;;;;;;6.90;5.80;;;;;;;25.47;43.42;100354.69;88214;1275;98875;-61
2022/05/03 05:20:15;;;;;;;8.40;6.50;;;;;;;25.77;42.72;100354.01;88270;1274;89182;-67
2022/05/03 05:22:24;;;;;;;7.10;5.30;;;;;;;26.18;41.08;100354.25;88160;1274;94165;-66
2022/05/03 05:24:36;;;;;;;6.50;5.00;;;;;;;26.02;39.63;100356.34;88156;1274;78666;-60
2022/05/03 05:26:48;;;;;;;6.70;5.20;;;;;;;24.87;39.21;100353.69;88226;1275;81259;-61
2022/05/03 05:28:57;;;;;;;8.20;5.50;;;;;;;24.87;39.23;100357.27;88181;1274;99307;-62
2022/05/03 05:31:05;;;;;;;6.90;6.00;;;;;;;25.40;37.92;100352.64;88213;1274;88743;-60
2022/05/03 05:33:15;;;;;;;6.10;4.90;;;;;;;25.77;37.39;100358.06;88209;1274;95195;-61
2022/05/03 05:35:24;;;;;;;5.90;4.60;;;;;;;26.57;36.87;100353.58;88172;1274;77512;-68
2022/05/03 05:37:34;;;;;;;5.50;4.90;;;;;;;27.42;35.77;100347.77;88216;1274;81287;-68
2022/05/03 05:39:44;;;;;;;6.00;5.00;;;;;;;27.81;34.91;100350.56;88258;1274;98763;-69
2022/05/03 05:41:59;;;;;;;5.20;4.40;;;;;;;27.97;34.33;100347.77;88250;1274;88783;-68
2022/05/03 05:44:10;;;;;;;8.40;4.70;;;;;;;28.37;33.46;100345.88;88201;1274;96361;-67
2022/05/03 05:46:19;;;;;;;6.50;5.20;;;;;;;28.27;33.04;100344.46;88217;1276;81258;-67
2022/05/03 05:48:28;;;;;;;5.20;4.50;;;;;;;28.91;32.41;100346.21;88208;1274;80886;-67
2022/05/03 05:50:40;;;;;;;5.60;3.90;;;;;;;28.88;31.79;100349.40;88181;1274;99709;-67
2022/05/03 05:55:19;;;;;;;4.10;3.70;;;;;;;28.93;30.82;100346.38;88210;1274;94927;-62
2022/05/03 05:57:31;;;;;;;5.50;3.60;;;;;;;29.11;30.37;100348.42;88166;1274;81004;-62
2022/05/03 05:59:40;;;;;;;5.80;3.70;;;;;;;29.35;29.80;100348.83;88235;1274;82610;-62
2022/05/03 06:01:51;;;;;;;3.70;2.80;;;;;;;29.66;29.40;100348.17;88197;1274;100130;-62
2022/05/03 06:04:00;;;;;;;5.90;3.20;;;;;;;30.31;28.62;100347.29;88225;1274;87158;-67
2022/05/03 06:06:09;;;;;;;3.50;2.90;;;;;;;30.66;28.31;100351.84;88224;1274;95655;-67
2022/05/03 06:08:18;;;;;;;3.40;2.70;;;;;;;30.62;27.66;100351.73;88145;1274;80463;-68
2022/05/03 06:10:28;;;;;;;5.10;2.50;;;;;;;30.07;27.47;100352.58;88280;1274;83653;-68
2022/05/03 06:12:40;;;;;;;3.60;2.80;;;;;;;30.03;27.00;100355.71;88240;1274;98534;-68
2022/05/03 06:14:48;;;;;;;3.70;2.80;;;;;;;30.26;26.70;100354.86;88248;1274;88942;-61
2022/05/03 06:16:58;;;;;;;3.50;2.50;;;;;;;30.89;26.48;100356.63;88177;1274;94393;-62
2022/05/03 06:19:11;;;;;;;3.80;2.60;;;;;;;31.00;26.23;100351.96;88209;1275;80196;-68
2022/05/03 06:21:23;;;;;;;7.10;2.90;;;;;;;31.47;25.82;100349.07;88181;1274;82878;-61
2022/05/03 06:23:32;;;;;;;3.80;2.80;;;;;;;31.48;25.56;100353.10;88231;1274;99409;-66
2022/05/03 06:25:41;;;;;;;3.20;2.70;;;;;;;31.71;25.23;100352.02;88220;1274;88841;-61
2022/05/03 06:27:52;;;;;;;3.10;2.50;;;;;;;31.96;24.78;100351.89;88207;1274;94524;-62
2022/05/03 06:30:01;;;;;;;4.90;2.90;;;;;;;32.49;24.37;100353.85;88249;1274;79626;-62
2022/05/03 06:32:12;;;;;;;3.30;2.50;;;;;;;32.85;24.13;100355.03;88237;1274;83921;-62
2022/05/03 06:34:21;;;;;;;3.80;2.80;;;;;;;32.63;23.59;100354.73;88241;1275;99323;-62
2022/05/03 06:36:30;;;;;;;3.20;2.60;;;;;;;32.84;23.76;100352.58;88237;1274;88069;-62
2022/05/03 06:38:40;;;;;;;3.30;2.20;;;;;;;32.88;23.34;100354.79;88219;1274;95125;-62
2022/05/03 06:40:50;;;;;;;2.80;2.30;;;;;;;32.86;23.31;100356.52;88235;1275;77846;-67
2022/05/03 06:42:59;;;;;;;3.90;2.80;;;;;;;32.85;22.74;100356.55;88192;1274;83083;-67
2022/05/03 06:45:11;;;;;;;4.40;3.10;;;;;;;33.46;22.55;100360.27;88227;1274;100272;-67
2022/05/03 06:47:23;;;;;;;4.00;2.70;;;;;;;33.48;21.71;100359.30;88239;1274;88476;-67
2022/05/03 06:49:32;;;;;;;4.00;2.80;;;;;;;33.52;22.02;100360.27;88220;1274;94876;-62
2022/05/03 06:51:41;;;;;;;3.30;2.70;;;;;;;33.91;21.55;100363.38;88219;1275;78696;-61
2022/05/03 06:53:51;;;;;;;4.70;2.70;;;;;;;34.01;21.58;100363.36;88256;1275;82112;-66
2022/05/03 06:56:00;;;;;;;4.20;2.40;;;;;;;33.92;21.59;100363.10;88211;1274;100083;-67
2022/05/03 06:58:11;;;;;;;4.60;3.10;;;;;;;33.83;20.94;100361.99;88194;1274;89239;-68
2022/05/03 07:00:21;;;;;;;5.10;3.00;;;;;;;33.87;21.17;100362.60;88252;1275;95542;-67
2022/05/03 07:02:34;;;;;;;3.10;2.70;;;;;;;33.86;21.13;100365.77;88227;1274;80752;-68
2022/05/03 07:04:46;;;;;;;3.60;2.50;;;;;;;33.40;20.94;100360.85;88231;1275;81670;-61
2022/05/03 07:06:58;;;;;;;3.50;2.70;;;;;;;33.59;20.50;100365.19;88237;1274;99775;-61
2022/05/03 07:09:10;;;;;;;4.30;2.80;;;;;;;33.53;20.86;100369.81;88237;1274;89708;-67
2022/05/03 07:11:22;;;;;;;3.20;2.70;;;;;;;33.59;20.63;100369.34;88192;1274;95171;-66
2022/05/03 07:13:32;;;;;;;4.70;2.70;;;;;;;33.98;20.92;100372.05;88213;1274;81463;-68
2022/05/03 07:15:42;;;;;;;6.00;2.40;;;;;;;34.59;20.60;100376.15;88238;1274;83562;-63
2022/05/03 07:22:50;;;;;;;3.80;2.70;;;;;;;34.27;20.40;100379.86;88203;1274;95482;-68
2022/05/03 07:24:59;;;;;;;3.60;2.40;;;;;;;34.15;20.13;100377.75;88234;1274;78410;-62
2022/05/03 07:27:08;;;;;;;3.20;2.00;;;;;;;34.60;19.67;100378.17;88235;1274;82269;-62
2022/05/03 07:29:20;;;;;;;8.50;2.70;;;;;;;34.26;19.78;100382.21;88253;1275;100516;-63
2022/05/03 07:31:29;;;;;;;3.90;2.50;;;;;;;33.83;19.25;100381.58;88180;1274;88907;-62
2022/05/03 07:33:38;;;;;;;3.60;2.60;;;;;;;33.33;19.31;100378.30;88221;1274;95623;-62
2022/05/03 07:35:48;;;;;;;2.90;2.10;;;;;;;33.14;19.62;100377.43;88230;1275;78695;-67
2022/05/03 07:37:57;;;;;;;2.70;2.10;;;;;;;33.57;19.42;100382.08;88193;1274;81772;-68
2022/05/03 07:40:07;;;;;;;3.10;2.40;;;;;;;33.43;19.19;100385.05;88238;1274;99883;-63
2022/05/03 07:42:16;;;;;;;2.60;2.40;;;;;;;33.19;19.29;100384.51;88237;1274;88998;-62
2022/05/03 07:44:26;;;;;;;2.90;2.50;;;;;;;32.90;19.55;100387.94;88166;1274;95852;-62
2022/05/03 07:46:35;;;;;;;4.70;2.80;;;;;;;32.68;19.39;100390.77;88185;1274;77572;-62
2022/05/03 07:48:47;;;;;;;4.90;2.50;;;;;;;32.51;19.57;100387.59;88243;1274;82623;-64
2022/05/03 07:51:00;;;;;;;3.70;2.40;;;;;;;32.98;20.11;100393.39;88220;1274;100229;-61
2022/05/03 07:53:08;;;;;;;;;;;;;;;33.25;19.37;100389.30;88210;1274;89460;-62
2022/05/03 07:55:17;;;;;;;3.00;2.40;;;;;;;32.87;19.23;100390.88;88232;1274;94716;-67
2022/05/03 07:57:30;;;;;;;3.30;2.50;;;;;;;33.38;18.98;100395.34;88209;1274;79420;-67
2022/05/03 07:59:40;;;;;;;4.90;2.40;;;;;;;33.22;19.21;100398.52;88232;1274;83477;-62
2022/05/03 08:01:49;;;;;;;3.40;2.70;;;;;;;33.04;19.11;100396.85;88215;1274;98764;-63
2022/05/03 08:03:58;;;;;;;3.10;2.00;;;;;;;32.59;18.92;100398.48;88219;1272;86624;-68
2022/05/03 08:06:07;;;;;;;4.70;2.60;;;;;;;32.47;19.18;100394.86;88197;1274;95507;-67
2022/05/03 08:08:16;;;;;;;4.40;2.80;;;;;;;32.33;19.14;100391.81;88183;1274;80102;-68
2022/05/03 08:10:25;;;;;;;3.30;2.40;;;;;;;32.07;19.13;100393.89;88241;1274;80517;-62
2022/05/03 08:12:35;;;;;;;2.90;2.60;;;;;;;31.91;19.12;100398.61;88228;1274;98886;-62
2022/05/03 08:14:48;;;;;;;4.00;2.90;;;;;;;31.94;19.49;100395.71;88232;1274;86959;-63
2022/05/03 08:16:56;;;;;;;3.60;2.40;;;;;;;32.04;19.44;100397.45;88213;1274;94063;-63
2022/05/03 08:19:08;;;;;;;3.80;2.50;;;;;;;32.34;19.34;100395.96;88197;1274;80229;-68
2022/05/03 08:21:20;;;;;;;5.30;2.30;;;;;;;32.75;19.30;100393.65;88149;1274;83155;-67
2022/05/03 08:23:29;;;;;;;2.90;2.20;;;;;;;33.08;19.50;100397.10;88204;1274;98962;-68
2022/05/03 08:25:41;;;;;;;3.10;2.30;;;;;;;33.55;18.94;100397.25;88219;1274;87274;-64
2022/05/03 08:27:54;;;;;;;3.80;2.60;;;;;;;33.36;18.83;100394.53;88219;1274;95283;-66
2022/05/03 08:30:03;;;;;;;2.50;2.20;;;;;;;32.54;18.75;100401.94;88169;1274;77936;-66
2022/05/03 08:32:15;;;;;;;4.40;2.30;;;;;;;31.97;19.34;100400.48;88168;1274;81887;-63
2022/05/03 08:34:23;;;;;;;4.00;2.50;;;;;;;31.53;19.04;100402.36;88176;1274;99087;-65
2022/05/03 08:36:36;;;;;;;3.70;2.30;;;;;;;30.91;19.45;100403.38;88231;1274;89103;-63
2022/05/03 08:43:47;;;;;;;3.30;2.30;;;;;;;31.08;20.00;100406.70;88215;1274;82846;-64
2022/05/03 08:45:59;;;;;;;;;;;;;;;31.68;20.28;100393.60;88252;1274;99302;-66
2022/05/03 08:48:12;;;;;;;2.90;2.30;;;;;;;32.28;19.81;100404.73;88160;1274;88983;-65
2022/05/03 08:50:25;;;;;;;3.80;2.50;;;;;;;32.07;19.22;100399.98;88183;1274;93134;-67
2022/05/03 08:52:38;;;;;;;;;;;;;;;31.10;19.48;100403.16;88255;1274;79874;-68
2022/05/03 08:54:51;;;;;;;3.40;2.20;;;;;;;31.30;19.75;100400.94;88236;1274;82780;-62
2022/05/03 08:57:05;;;;;;;3.70;2.90;;;;;;;31.66;19.75;100392.08;88218;1274;99858;-61
2022/05/03 08:59:16;;;;;;;3.20;2.90;;;;;;;30.91;19.69;100395.41;88230;1274;88309;-67
2022/05/03 09:01:29;;;;;;;3.30;2.70;;;;;;;30.85;19.93;100397.63;88230;1274;95644;-68
2022/05/03 09:03:42;;;;;;;3.50;2.60;;;;;;;30.50;19.82;100397.98;88219;1274;80244;-67
2022/05/03 09:05:52;;;;;;;4.50;2.40;;;;;;;30.37;20.00;100403.95;88247;1273;82972;-61
2022/05/03 09:08:04;;;;;;;4.20;2.80;;;;;;;30.07;20.10;100400.11;88236;1274;99941;-62
2022/05/03 09:10:24;;;;;;;3.80;2.70;;;;;;;29.70;20.76;100391.27;88225;1274;87277;-62
2022/05/03 09:12:34;;;;;;;5.20;3.20;;;;;;;30.08;20.28;100391.74;88214;1274;95144;-62
2022/05/03 09:14:46;;;;;;;6.60;2.80;;;;;;;29.48;20.50;100393.89;88243;1274;79033;-61
2022/05/03 09:16:55;;;;;;;4.70;3.00;;;;;;;29.22;21.11;100390.94;88225;1274;82431;-59
2022/05/03 09:19:22;;;;;;;4.60;3.20;;;;;;;29.14;20.91;100386.26;88262;1273;99724;-66
2022/05/03 09:24:07;;;;;;;3.60;2.70;;;;;;;28.00;21.64;100390.23;88236;1274;94546;-61
2022/05/03 09:26:21;;;;;;;7.00;2.60;;;;;;;27.77;21.85;100378.12;88180;1274;81319;-60
2022/05/03 09:28:29;;;;;;;3.40;2.70;;;;;;;27.74;21.82;100380.23;88208;1274;83549;-60
2022/05/03 09:30:50;;;;;;;5.00;2.70;;;;;;;27.25;22.04;100385.24;88224;1273;99139;-62
2022/05/03 09:32:59;;;;;;;5.20;2.70;;;;;;;26.93;22.48;100384.31;88197;1274;88938;-63
2022/05/03 09:35:29;;;;;;;4.40;2.80;;;;;;;26.79;22.48;100392.35;88208;1274;96364;-61
2022/05/03 09:37:48;;;;;;;4.30;2.80;;;;;;;26.62;22.73;100388.27;88199;1274;78890;-66
2022/05/03 09:40:00;;;;;;;4.30;2.70;;;;;;;26.59;22.77;100389.09;88252;1274;81970;-66
2022/05/03 09:42:14;;;;;;;3.00;2.40;;;;;;;26.53;22.83;100390.66;88227;1274;100120;-64
2022/05/03 09:44:23;;;;;;;4.40;2.30;;;;;;;26.45;23.26;100391.80;88179;1274;89137;-65
2022/05/03 09:46:33;;;;;;;4.30;2.80;;;;;;;26.29;23.46;100390.30;88159;1274;95369;-66
2022/05/03 09:48:58;;;;;;;3.50;2.40;;;;;;;26.07;23.48;100393.23;88161;1274;78864;-65
2022/05/03 09:51:17;;;;;;;4.20;2.70;;;;;;;25.41;23.53;100386.55;88190;1274;82957;-65
2022/05/03 09:53:29;;;;;;;3.70;2.70;;;;;;;24.96;24.08;100379.34;88230;1274;99084;-65
2022/05/03 09:55:45;;;;;;;4.40;2.50;;;;;;;24.67;24.23;100379.30;88224;1274;87095;-61
2022/05/03 09:58:00;;;;;;;8.70;3.00;;;;;;;24.50;24.87;100375.65;88176;1274;96207;-61
2022/05/03 10:00:17;;;;;;;5.30;2.50;;;;;;;24.78;25.31;100369.96;88198;1274;79671;-60
2022/05/03 10:02:28;;;;;;;5.40;2.60;;;;;;;24.89;25.08;100370.27;88182;1274;84308;-60
2022/05/03 10:04:37;;;;;;;6.80;2.70;;;;;;;24.83;25.39;100372.78;88209;1274;99133;-65
2022/05/03 10:06:47;;;;;;;6.80;2.30;;;;;;;24.94;25.25;100377.65;88249;1274;87310;-65
2022/05/03 10:08:56;;;;;;;9.50;2.90;;;;;;;24.80;25.32;100378.86;88219;1274;95256;-68
2022/05/03 10:11:08;;;;;;;3.90;2.20;;;;;;;24.88;24.97;100375.63;88185;1274;80918;-65
2022/05/03 10:13:20;;;;;;;5.80;2.50;;;;;;;24.71;25.02;100377.29;88238;1274;81293;-66
2022/05/03 10:20:38;;;;;;;3.60;2.30;;;;;;;25.04;25.43;100374.95;88170;1274;95050;-62
2022/05/03 10:22:47;;;;;;;6.00;2.20;;;;;;;25.22;25.40;100376.21;88209;1274;79785;-60
2022/05/03 10:25:15;;;;;;;3.10;2.20;;;;;;;25.29;25.15;100378.65;88249;1274;80180;-65
2022/05/03 10:28:06;;;;;;;4.90;2.20;;;;;;;25.25;25.00;100377.91;88202;1274;97288;-62
2022/05/03 10:30:38;;;;;;;6.00;2.80;;;;;;;25.40;25.38;100374.44;88128;1274;87750;-62
2022/05/03 10:33:26;;;;;;;3.70;2.40;;;;;;;25.55;25.57;100370.85;88210;1274;96347;-66
2022/05/03 10:35:52;;;;;;;3.90;2.40;;;;;;;25.45;25.16;100379.10;88138;1274;82681;-63
2022/05/03 10:38:17;;;;;;;3.40;2.20;;;;;;;24.49;25.40;100384.16;88222;1274;80862;-63
2022/05/03 10:40:48;;;;;;;4.30;2.30;;;;;;;23.60;25.62;100385.08;88237;1274;100496;-62
2022/05/03 10:43:25;;;;;;;5.10;2.50;;;;;;;23.33;26.36;100381.83;88224;1274;87578;-61
2022/05/03 10:45:57;;;;;;;6.70;2.70;;;;;;;23.64;26.47;100380.40;88147;1274;96475;-68
2022/05/03 10:48:30;;;;;;;3.80;1.90;;;;;;;24.21;26.72;100368.72;88231;1274;80861;-69
2022/05/03 10:50:44;;;;;;;6.60;2.30;;;;;;;24.78;26.41;100374.05;88240;1274;82657;-65
2022/05/03 10:53:22;;;;;;;5.40;2.20;;;;;;;25.05;26.30;100379.46;88222;1274;99524;-66